Time;durP1;ratioP1;P1;durP2;ratioP2;P2;SDS_P1;SDS_P2;PMS_P1;PMS_P2;Temp;Humidity;BMP_temperature;BMP_pressure;BME280_temperature;BME280_humidity;BME280_pressure;Samples;Min_cycle;Max_cycle;Signal;HPM_P1;HPM_P2
2023/03/13 00:01:42;;;;;;;12.10;4.73;;;;;;;;;;5113423;28;20221;-86
2023/03/13 00:04:10;;;;;;;15.53;4.47;;;;;;;;;;5113224;28;20285;-85
2023/03/13 00:06:38;;;;;;;13.50;4.17;;;;;;;;;;5112625;28;20285;-86
2023/03/13 00:09:06;;;;;;;18.37;4.87;;;;;;;;;;5112583;28;20194;-85
2023/03/13 00:11:34;;;;;;;12.60;4.63;;;;;;;;;;5113166;28;20285;-86
2023/03/13 00:14:02;;;;;;;14.00;4.47;;;;;;;;;;5112155;28;20651;-87
2023/03/13 00:16:31;;;;;;;16.30;4.40;;;;;;;;;;5112526;28;20200;-85
2023/03/13 00:18:58;;;;;;;12.37;4.23;;;;;;;;;;5112722;28;20217;-86
2023/03/13 00:21:27;;;;;;;14.37;4.30;;;;;;;;;;5112882;28;20555;-86
2023/03/13 00:23:54;;;;;;;11.17;4.10;;;;;;;;;;5112439;28;20285;-85
2023/03/13 00:26:22;;;;;;;10.80;4.20;;;;;;;;;;5112595;28;20260;-87
2023/03/13 00:28:50;;;;;;;9.23;3.73;;;;;;;;;;5112199;28;20276;-86
2023/03/13 00:31:18;;;;;;;14.87;4.23;;;;;;;;;;5111723;28;20198;-85
2023/03/13 00:33:48;;;;;;;13.53;4.40;;;;;;;;;;5112219;28;20288;-86
2023/03/13 00:36:16;;;;;;;11.50;3.97;;;;;;;;;;5112732;28;20297;-86
2023/03/13 00:38:43;;;;;;;11.77;3.23;;;;;;;;;;5112342;28;20198;-85
2023/03/13 00:41:12;;;;;;;14.23;4.57;;;;;;;;;;5112954;28;20232;-86
2023/03/13 00:43:39;;;;;;;10.50;3.90;;;;;;;;;;5112105;28;20200;-87
2023/03/13 00:46:07;;;;;;;12.33;3.93;;;;;;;;;;5112021;28;20727;-85
2023/03/13 00:48:34;;;;;;;9.27;3.57;;;;;;;;;;5112335;28;20288;-86
2023/03/13 00:51:04;;;;;;;10.63;3.37;;;;;;;;;;5112273;28;20280;-85
2023/03/13 00:53:31;;;;;;;7.93;3.33;;;;;;;;;;5111756;28;20229;-87
2023/03/13 00:55:59;;;;;;;8.83;3.60;;;;;;;;;;5112066;28;20618;-87
2023/03/13 00:58:27;;;;;;;9.33;3.63;;;;;;;;;;5111968;28;20225;-85
2023/03/13 01:00:54;;;;;;;10.30;3.23;;;;;;;;;;5112012;28;20218;-85
2023/03/13 01:03:24;;;;;;;11.60;3.53;;;;;;;;;;5111649;28;20326;-85
2023/03/13 01:05:56;;;;;;;9.80;3.20;;;;;;;;;;5111880;28;20248;-86
2023/03/13 01:08:24;;;;;;;12.50;4.00;;;;;;;;;;5112010;28;20220;-86
2023/03/13 01:10:52;;;;;;;9.53;3.63;;;;;;;;;;5111502;28;20244;-87
2023/03/13 01:13:19;;;;;;;12.60;3.90;;;;;;;;;;5111709;28;20277;-85
2023/03/13 01:15:46;;;;;;;7.90;3.50;;;;;;;;;;5111974;28;20285;-85
2023/03/13 01:18:14;;;;;;;14.20;4.17;;;;;;;;;;5112208;28;20281;-87
2023/03/13 01:20:41;;;;;;;8.47;3.90;;;;;;;;;;5112240;28;20619;-86
2023/03/13 01:23:08;;;;;;;10.23;3.87;;;;;;;;;;5112146;28;20221;-86
2023/03/13 01:25:38;;;;;;;8.70;3.50;;;;;;;;;;5111528;28;20275;-86
2023/03/13 01:28:06;;;;;;;10.87;3.70;;;;;;;;;;5112082;28;20198;-87
2023/03/13 01:30:33;;;;;;;12.77;3.80;;;;;;;;;;5111878;28;20818;-85
2023/03/13 01:33:01;;;;;;;12.67;4.20;;;;;;;;;;5111900;28;20280;-85
2023/03/13 01:35:28;;;;;;;8.23;3.40;;;;;;;;;;5111588;28;20202;-86
2023/03/13 01:37:55;;;;;;;9.37;4.00;;;;;;;;;;5112017;28;20233;-86
2023/03/13 01:40:23;;;;;;;11.77;3.90;;;;;;;;;;5111701;28;20284;-87
2023/03/13 01:42:53;;;;;;;12.50;3.90;;;;;;;;;;5106241;28;20286;-86
2023/03/13 01:45:38;;;;;;;9.43;3.57;;;;;;;;;;5095067;28;20277;-87
2023/03/13 01:48:06;;;;;;;9.77;3.20;;;;;;;;;;5095495;28;20293;-87
2023/03/13 01:50:33;;;;;;;12.33;3.50;;;;;;;;;;5095137;28;20229;-85
2023/03/13 01:53:01;;;;;;;11.07;4.13;;;;;;;;;;5094901;28;20936;-85
2023/03/13 01:55:28;;;;;;;6.73;3.33;;;;;;;;;;5095174;28;20285;-86
2023/03/13 01:57:57;;;;;;;8.07;3.50;;;;;;;;;;5094842;28;20874;-86
2023/03/13 02:00:25;;;;;;;12.47;4.30;;;;;;;;;;5095159;28;20285;-87
2023/03/13 02:02:55;;;;;;;12.67;4.40;;;;;;;;;;5095234;28;20233;-86
2023/03/13 02:05:23;;;;;;;13.10;4.00;;;;;;;;;;5094712;28;20317;-87
2023/03/13 02:07:54;;;;;;;10.17;4.00;;;;;;;;;;5094611;28;20297;-87
2023/03/13 02:10:22;;;;;;;11.60;3.70;;;;;;;;;;5093893;28;20215;-85
2023/03/13 02:12:50;;;;;;;12.37;3.97;;;;;;;;;;5104988;28;20222;-85
2023/03/13 02:15:19;;;;;;;11.77;3.67;;;;;;;;;;5115055;28;20285;-87
2023/03/13 02:17:48;;;;;;;11.90;4.10;;;;;;;;;;5115078;28;20612;-86
2023/03/13 02:20:16;;;;;;;12.37;4.67;;;;;;;;;;5115356;28;20660;-87
2023/03/13 02:22:46;;;;;;;10.07;3.67;;;;;;;;;;5114701;28;20285;-86
2023/03/13 02:25:19;;;;;;;12.37;4.10;;;;;;;;;;5114664;28;20661;-86
2023/03/13 02:27:48;;;;;;;18.70;4.37;;;;;;;;;;5115002;28;20234;-85
2023/03/13 02:30:15;;;;;;;13.60;4.63;;;;;;;;;;5114875;28;20225;-85
2023/03/13 02:32:43;;;;;;;16.37;4.43;;;;;;;;;;5114863;28;20217;-84
2023/03/13 02:35:12;;;;;;;13.03;4.47;;;;;;;;;;5114472;28;20635;-85
2023/03/13 02:37:39;;;;;;;9.80;4.23;;;;;;;;;;5114588;28;20280;-86
2023/03/13 02:40:09;;;;;;;8.70;3.87;;;;;;;;;;5114582;28;20230;-86
2023/03/13 02:42:37;;;;;;;12.47;4.43;;;;;;;;;;5114161;28;20217;-85
2023/03/13 02:45:06;;;;;;;11.90;4.50;;;;;;;;;;5114184;28;20248;-85
2023/03/13 02:47:33;;;;;;;10.07;4.43;;;;;;;;;;5114238;28;20734;-86
2023/03/13 02:50:01;;;;;;;14.10;4.43;;;;;;;;;;5114282;28;20255;-85
2023/03/13 02:52:30;;;;;;;12.67;4.83;;;;;;;;;;5114344;28;20284;-84
2023/03/13 02:54:59;;;;;;;14.87;5.10;;;;;;;;;;5113586;27;20221;-84
2023/03/13 02:57:26;;;;;;;10.47;4.50;;;;;;;;;;5113829;28;20973;-85
2023/03/13 02:59:53;;;;;;;11.37;4.70;;;;;;;;;;5114206;28;20590;-85
2023/03/13 03:02:22;;;;;;;13.50;4.63;;;;;;;;;;5113895;28;20262;-85
2023/03/13 03:04:50;;;;;;;11.60;5.00;;;;;;;;;;5114125;28;20198;-85
2023/03/13 03:07:17;;;;;;;11.10;4.90;;;;;;;;;;5113194;28;20282;-85
2023/03/13 03:09:44;;;;;;;10.73;4.70;;;;;;;;;;5113872;28;20717;-86
2023/03/13 03:12:11;;;;;;;13.67;4.87;;;;;;;;;;5114306;28;20623;-86
2023/03/13 03:14:39;;;;;;;11.80;5.10;;;;;;;;;;5113799;28;20285;-86
2023/03/13 03:17:06;;;;;;;14.27;5.13;;;;;;;;;;5114064;28;20308;-86
2023/03/13 03:19:35;;;;;;;10.67;5.13;;;;;;;;;;5114026;27;20239;-85
2023/03/13 03:22:02;;;;;;;13.50;5.87;;;;;;;;;;5113522;28;20291;-85
2023/03/13 03:24:29;;;;;;;11.13;5.20;;;;;;;;;;5113584;28;20243;-86
2023/03/13 03:26:57;;;;;;;10.47;5.80;;;;;;;;;;5113659;28;20230;-85
2023/03/13 03:29:24;;;;;;;14.83;5.80;;;;;;;;;;5113482;28;20221;-85
2023/03/13 03:31:51;;;;;;;16.50;5.60;;;;;;;;;;5113124;28;20198;-83
2023/03/13 03:34:19;;;;;;;10.87;5.27;;;;;;;;;;5113658;27;20259;-85
2023/03/13 03:36:47;;;;;;;12.43;5.60;;;;;;;;;;5112810;28;20281;-85
2023/03/13 03:39:14;;;;;;;11.30;5.17;;;;;;;;;;5112857;28;20247;-87
2023/03/13 03:41:42;;;;;;;8.63;4.73;;;;;;;;;;5113113;28;20281;-84
2023/03/13 03:44:09;;;;;;;10.50;5.00;;;;;;;;;;5113484;28;20296;-84
2023/03/13 03:46:36;;;;;;;10.80;5.37;;;;;;;;;;5107539;28;20321;-84
2023/03/13 03:49:03;;;;;;;9.17;4.67;;;;;;;;;;5103798;28;20293;-84
2023/03/13 03:51:30;;;;;;;10.40;4.63;;;;;;;;;;5112707;28;20230;-85
2023/03/13 03:53:59;;;;;;;8.13;4.63;;;;;;;;;;5112673;28;20290;-84
2023/03/13 03:56:26;;;;;;;8.50;4.87;;;;;;;;;;5112717;28;20288;-85
2023/03/13 03:58:53;;;;;;;8.83;4.43;;;;;;;;;;5112549;28;20281;-84
2023/03/13 04:01:21;;;;;;;12.50;5.37;;;;;;;;;;5112320;28;20696;-84
2023/03/13 04:03:48;;;;;;;7.93;4.80;;;;;;;;;;5112440;28;20224;-84
2023/03/13 04:06:15;;;;;;;11.50;5.07;;;;;;;;;;5111610;28;20719;-84
2023/03/13 04:08:43;;;;;;;11.43;4.87;;;;;;;;;;5112416;28;20284;-84
2023/03/13 04:11:11;;;;;;;9.30;4.83;;;;;;;;;;5112666;28;20285;-84
2023/03/13 04:13:39;;;;;;;10.63;4.73;;;;;;;;;;5112081;28;20194;-85
2023/03/13 04:16:08;;;;;;;6.40;4.20;;;;;;;;;;5112295;28;20284;-84
2023/03/13 04:18:35;;;;;;;9.70;5.20;;;;;;;;;;5112445;28;20202;-85
2023/03/13 04:21:03;;;;;;;7.67;4.70;;;;;;;;;;5112416;28;20243;-85
2023/03/13 04:23:30;;;;;;;8.23;4.33;;;;;;;;;;5112455;28;20197;-85
2023/03/13 04:25:57;;;;;;;6.47;4.53;;;;;;;;;;5112197;28;20225;-85
2023/03/13 04:28:26;;;;;;;8.00;4.43;;;;;;;;;;5111972;27;20622;-85
2023/03/13 04:31:00;;;;;;;7.00;3.63;;;;;;;;;;5111629;28;20204;-84
2023/03/13 04:33:27;;;;;;;9.80;3.93;;;;;;;;;;5110634;28;20554;-84
2023/03/13 04:35:55;;;;;;;7.57;3.90;;;;;;;;;;5111773;28;20225;-85
2023/03/13 04:38:22;;;;;;;6.90;3.77;;;;;;;;;;5112027;28;20662;-85
2023/03/13 04:40:52;;;;;;;6.30;3.60;;;;;;;;;;5111816;28;20304;-84
2023/03/13 04:43:19;;;;;;;7.27;3.60;;;;;;;;;;5111858;28;20220;-85
2023/03/13 04:45:48;;;;;;;5.67;3.63;;;;;;;;;;5111777;28;20257;-84
2023/03/13 04:48:16;;;;;;;4.50;3.30;;;;;;;;;;5111956;28;20599;-83
2023/03/13 04:50:43;;;;;;;7.57;3.30;;;;;;;;;;5111456;28;20232;-83
2023/03/13 04:53:10;;;;;;;6.27;2.90;;;;;;;;;;5111929;28;20193;-83
2023/03/13 04:55:37;;;;;;;5.23;2.43;;;;;;;;;;5111619;28;20413;-83
2023/03/13 04:58:04;;;;;;;3.77;2.43;;;;;;;;;;5111510;28;20293;-85
2023/03/13 05:00:32;;;;;;;4.07;2.50;;;;;;;;;;5111600;28;20240;-84
2023/03/13 05:03:00;;;;;;;5.10;2.60;;;;;;;;;;5111867;28;20274;-85
2023/03/13 05:05:28;;;;;;;5.17;2.50;;;;;;;;;;5111388;28;20289;-85
2023/03/13 05:07:55;;;;;;;5.40;2.13;;;;;;;;;;5111948;28;20316;-84
2023/03/13 05:10:22;;;;;;;4.50;2.30;;;;;;;;;;5111229;28;20292;-83
2023/03/13 05:12:49;;;;;;;5.20;2.33;;;;;;;;;;5111532;28;20284;-84
2023/03/13 05:15:17;;;;;;;4.63;2.13;;;;;;;;;;5111114;28;20236;-84
2023/03/13 05:17:44;;;;;;;4.30;2.20;;;;;;;;;;5112821;28;20288;-84
2023/03/13 05:20:13;;;;;;;5.30;2.10;;;;;;;;;;5116278;28;20297;-84
2023/03/13 05:22:40;;;;;;;6.90;2.30;;;;;;;;;;5115439;28;20616;-84
2023/03/13 05:25:08;;;;;;;4.50;2.10;;;;;;;;;;5115661;28;20225;-84
2023/03/13 05:27:35;;;;;;;6.80;2.70;;;;;;;;;;5115784;28;20257;-85
2023/03/13 05:30:02;;;;;;;6.10;2.43;;;;;;;;;;5115006;28;20197;-84
2023/03/13 05:32:29;;;;;;;8.40;2.53;;;;;;;;;;5115793;27;20282;-84
2023/03/13 05:34:57;;;;;;;7.47;2.70;;;;;;;;;;5115368;28;20288;-84
2023/03/13 05:37:25;;;;;;;6.90;2.43;;;;;;;;;;5115189;28;20293;-84
2023/03/13 05:39:53;;;;;;;8.13;2.80;;;;;;;;;;5115587;28;20225;-83
2023/03/13 05:42:20;;;;;;;7.60;2.37;;;;;;;;;;5116019;28;20272;-83
2023/03/13 05:44:47;;;;;;;4.27;1.93;;;;;;;;;;5114962;28;20229;-84
2023/03/13 05:47:16;;;;;;;6.90;2.03;;;;;;;;;;5114744;28;20316;-84
2023/03/13 05:49:43;;;;;;;5.23;2.10;;;;;;;;;;5116002;28;20198;-85
2023/03/13 05:52:10;;;;;;;6.23;2.30;;;;;;;;;;5115405;28;20298;-84
2023/03/13 05:54:39;;;;;;;6.33;2.10;;;;;;;;;;5111604;28;20698;-84
2023/03/13 05:57:06;;;;;;;6.80;2.23;;;;;;;;;;5109342;28;20285;-86
2023/03/13 05:59:33;;;;;;;6.33;2.30;;;;;;;;;;5114245;28;20225;-82
2023/03/13 06:02:01;;;;;;;9.80;2.53;;;;;;;;;;5114248;28;20225;-81
2023/03/13 06:04:28;;;;;;;7.63;2.17;;;;;;;;;;5114447;28;20304;-81
2023/03/13 06:06:55;;;;;;;5.63;2.43;;;;;;;;;;5114462;28;20780;-83
2023/03/13 06:09:23;;;;;;;12.27;2.90;;;;;;;;;;5114419;28;20225;-81
2023/03/13 06:11:51;;;;;;;8.57;2.70;;;;;;;;;;5114896;28;20314;-81
2023/03/13 06:14:18;;;;;;;11.73;2.97;;;;;;;;;;5104026;28;20737;-81
2023/03/13 06:16:46;;;;;;;7.00;2.47;;;;;;;;;;5108677;28;20733;-82
2023/03/13 06:19:13;;;;;;;13.33;3.43;;;;;;;;;;5113798;28;20298;-81
2023/03/13 06:21:40;;;;;;;9.47;2.90;;;;;;;;;;5113935;28;20214;-81
2023/03/13 06:24:08;;;;;;;14.07;3.80;;;;;;;;;;5111869;28;20297;-81
2023/03/13 06:26:35;;;;;;;11.63;3.43;;;;;;;;;;5110060;28;20304;-82
2023/03/13 06:29:03;;;;;;;10.67;3.20;;;;;;;;;;5112575;28;20232;-82
2023/03/13 06:31:31;;;;;;;14.73;3.53;;;;;;;;;;5113480;28;20225;-82
2023/03/13 06:33:58;;;;;;;15.73;3.60;;;;;;;;;;5113952;28;20780;-82
2023/03/13 06:36:25;;;;;;;15.20;4.17;;;;;;;;;;5112801;28;20263;-82
2023/03/13 06:38:53;;;;;;;13.93;4.00;;;;;;;;;;5114122;28;20697;-81
2023/03/13 06:41:20;;;;;;;14.93;4.80;;;;;;;;;;5112821;28;20336;-83
2023/03/13 06:43:47;;;;;;;15.73;4.53;;;;;;;;;;5105610;28;20202;-81
2023/03/13 06:46:18;;;;;;;14.67;4.07;;;;;;;;;;5113746;28;20264;-81
2023/03/13 06:48:45;;;;;;;11.57;3.77;;;;;;;;;;5114164;28;20205;-80
2023/03/13 06:51:13;;;;;;;12.97;4.33;;;;;;;;;;5098800;28;20237;-81
2023/03/13 06:53:40;;;;;;;12.27;3.73;;;;;;;;;;5093568;28;20201;-81
2023/03/13 06:56:07;;;;;;;16.17;4.03;;;;;;;;;;5102783;28;20229;-82
2023/03/13 06:58:34;;;;;;;15.87;4.40;;;;;;;;;;5114264;28;20221;-80
2023/03/13 07:01:06;;;;;;;14.40;4.27;;;;;;;;;;5106765;28;20226;-82
2023/03/13 07:03:35;;;;;;;18.27;4.60;;;;;;;;;;5110470;28;20229;-80
2023/03/13 07:06:02;;;;;;;17.73;4.53;;;;;;;;;;5109049;28;20194;-79
2023/03/13 07:08:30;;;;;;;11.70;4.10;;;;;;;;;;5113107;28;20733;-80
2023/03/13 07:10:59;;;;;;;16.47;4.40;;;;;;;;;;5113161;28;20285;-81
2023/03/13 07:13:26;;;;;;;11.70;3.90;;;;;;;;;;5112727;28;20293;-80
2023/03/13 07:15:53;;;;;;;17.53;4.60;;;;;;;;;;5113045;28;20268;-82
2023/03/13 07:18:21;;;;;;;17.47;4.30;;;;;;;;;;5113219;28;20201;-81
2023/03/13 07:20:54;;;;;;;12.47;4.23;;;;;;;;;;5113210;28;20221;-82
2023/03/13 07:23:21;;;;;;;11.50;3.43;;;;;;;;;;5112116;28;20200;-81
2023/03/13 07:25:53;;;;;;;16.83;4.57;;;;;;;;;;5112882;28;20200;-79
2023/03/13 07:28:21;;;;;;;16.30;4.00;;;;;;;;;;5112717;28;20221;-80
2023/03/13 07:30:48;;;;;;;14.70;3.80;;;;;;;;;;5112639;28;20306;-81
2023/03/13 07:33:15;;;;;;;13.13;3.60;;;;;;;;;;5112745;28;20292;-80
2023/03/13 07:35:47;;;;;;;15.23;4.67;;;;;;;;;;5112958;28;20640;-81
2023/03/13 07:38:16;;;;;;;12.23;3.90;;;;;;;;;;5112558;28;20279;-81
2023/03/13 07:40:48;;;;;;;15.60;3.80;;;;;;;;;;5112184;28;20284;-80
2023/03/13 07:43:15;;;;;;;14.17;4.30;;;;;;;;;;5111991;28;20189;-80
2023/03/13 07:45:50;;;;;;;14.77;4.53;;;;;;;;;;5112101;28;20793;-80
2023/03/13 07:48:17;;;;;;;18.80;4.33;;;;;;;;;;5112345;28;20278;-81
2023/03/13 07:50:45;;;;;;;16.57;4.10;;;;;;;;;;5112727;28;20797;-80
2023/03/13 07:53:12;;;;;;;17.50;3.97;;;;;;;;;;5111949;28;20288;-81
2023/03/13 07:55:40;;;;;;;14.07;4.03;;;;;;;;;;5112659;28;20694;-81
2023/03/13 07:58:07;;;;;;;16.80;4.30;;;;;;;;;;5105028;28;20232;-81
2023/03/13 08:00:35;;;;;;;16.00;4.30;;;;;;;;;;5094855;28;20234;-81
2023/03/13 08:03:03;;;;;;;13.05;4.75;;;;;;;;;;5112178;28;20717;-82
2023/03/13 08:05:30;;;;;;;12.50;3.70;;;;;;;;;;5112442;28;20204;-82
2023/03/13 08:07:57;;;;;;;12.93;3.70;;;;;;;;;;5112291;28;20312;-81
2023/03/13 08:10:25;;;;;;;16.08;4.18;;;;;;;;;;5112228;28;20292;-81
2023/03/13 08:12:53;;;;;;;14.80;4.00;;;;;;;;;;5111382;28;20237;-81
2023/03/13 08:15:24;;;;;;;15.67;3.97;;;;;;;;;;5111752;28;20224;-82
2023/03/13 08:17:51;;;;;;;15.83;4.23;;;;;;;;;;5111809;28;20205;-81
2023/03/13 08:20:19;;;;;;;15.77;3.93;;;;;;;;;;5112067;28;20201;-82
2023/03/13 08:22:46;;;;;;;18.40;4.17;;;;;;;;;;5112360;28;20225;-82
2023/03/13 08:25:13;;;;;;;12.03;3.97;;;;;;;;;;5111830;28;20677;-82
2023/03/13 08:27:41;;;;;;;11.60;4.22;;;;;;;;;;5111762;28;20312;-83
2023/03/13 08:30:10;;;;;;;19.50;4.65;;;;;;;;;;5104231;28;20768;-82
2023/03/13 08:32:37;;;;;;;16.48;4.22;;;;;;;;;;5091566;28;20226;-80
2023/03/13 08:35:05;;;;;;;18.50;4.30;;;;;;;;;;5091729;28;20285;-82
2023/03/13 08:37:32;;;;;;;15.55;3.72;;;;;;;;;;5107802;28;20387;-82
2023/03/13 08:39:59;;;;;;;19.43;4.27;;;;;;;;;;5109113;28;20229;-82
2023/03/13 08:42:26;;;;;;;18.37;4.13;;;;;;;;;;5091368;28;20226;-81
2023/03/13 08:44:53;;;;;;;16.73;4.73;;;;;;;;;;5095230;28;20301;-82
2023/03/13 08:47:22;;;;;;;16.83;4.00;;;;;;;;;;5091245;28;20261;-81
2023/03/13 08:49:49;;;;;;;20.63;4.23;;;;;;;;;;5091243;28;20293;-82
2023/03/13 08:52:16;;;;;;;20.13;4.43;;;;;;;;;;5093444;28;20294;-81
2023/03/13 08:54:44;;;;;;;15.17;3.67;;;;;;;;;;5109166;28;20251;-82
2023/03/13 08:57:11;;;;;;;14.13;3.25;;;;;;;;;;5110924;28;20225;-82
2023/03/13 08:59:38;;;;;;;20.38;3.60;;;;;;;;;;5111692;28;20666;-82
2023/03/13 09:02:05;;;;;;;13.18;3.92;;;;;;;;;;5111588;28;20237;-82
2023/03/13 09:04:34;;;;;;;14.65;3.65;;;;;;;;;;5111820;28;20250;-82
2023/03/13 09:07:01;;;;;;;15.77;4.00;;;;;;;;;;5111234;28;20238;-81
2023/03/13 09:09:28;;;;;;;17.63;4.60;;;;;;;;;;5110442;28;20839;-81
2023/03/13 09:11:55;;;;;;;14.65;3.90;;;;;;;;;;5110378;28;20194;-80
2023/03/13 09:14:23;;;;;;;17.33;3.60;;;;;;;;;;5111937;28;20229;-82
2023/03/13 09:16:50;;;;;;;17.48;3.78;;;;;;;;;;5111709;28;20297;-82
2023/03/13 09:19:17;;;;;;;15.90;3.40;;;;;;;;;;5110782;28;20564;-81
2023/03/13 09:21:48;;;;;;;20.15;3.85;;;;;;;;;;5111492;28;20225;-82
2023/03/13 09:24:15;;;;;;;16.83;4.10;;;;;;;;;;5111183;28;20198;-82
2023/03/13 09:26:42;;;;;;;15.48;3.80;;;;;;;;;;5111634;28;20201;-82
2023/03/13 09:29:10;;;;;;;16.08;3.83;;;;;;;;;;5110720;28;20320;-82
2023/03/13 09:31:38;;;;;;;18.30;4.30;;;;;;;;;;5111235;28;20193;-80
2023/03/13 09:34:05;;;;;;;16.63;3.33;;;;;;;;;;5111044;28;20226;-82
2023/03/13 09:36:32;;;;;;;16.77;3.70;;;;;;;;;;5111267;28;20289;-81
2023/03/13 09:39:01;;;;;;;20.17;4.10;;;;;;;;;;5110957;28;20233;-82
2023/03/13 09:41:33;;;;;;;20.60;4.13;;;;;;;;;;5111214;28;20646;-81
2023/03/13 09:44:03;;;;;;;18.75;3.72;;;;;;;;;;5111212;28;20297;-81
2023/03/13 09:46:34;;;;;;;18.00;3.78;;;;;;;;;;5110843;28;20277;-82
2023/03/13 09:49:03;;;;;;;19.40;3.72;;;;;;;;;;5111596;28;20317;-83
2023/03/13 09:51:33;;;;;;;18.10;4.38;;;;;;;;;;5111125;28;20284;-82
2023/03/13 09:54:07;;;;;;;14.00;3.70;;;;;;;;;;5110950;28;20217;-82
2023/03/13 09:56:37;;;;;;;17.42;4.13;;;;;;;;;;5110921;28;20741;-80
2023/03/13 09:59:07;;;;;;;14.52;3.35;;;;;;;;;;5111144;28;20297;-82
2023/03/13 10:01:35;;;;;;;15.82;3.50;;;;;;;;;;5111363;28;20237;-82
2023/03/13 10:04:07;;;;;;;17.17;3.70;;;;;;;;;;5113031;28;20285;-82
2023/03/13 10:06:36;;;;;;;14.50;3.70;;;;;;;;;;5114287;28;20237;-83
2023/03/13 10:09:06;;;;;;;16.15;3.28;;;;;;;;;;5114408;28;20253;-83
2023/03/13 10:11:38;;;;;;;18.60;3.65;;;;;;;;;;5115146;28;20281;-83
2023/03/13 10:14:07;;;;;;;18.83;3.55;;;;;;;;;;5113676;28;20250;-83
2023/03/13 10:16:38;;;;;;;16.63;3.78;;;;;;;;;;5114632;28;20282;-80
2023/03/13 10:19:11;;;;;;;9.98;3.55;;;;;;;;;;5114727;28;20232;-83
2023/03/13 10:21:38;;;;;;;17.30;3.42;;;;;;;;;;5114672;28;20217;-83
2023/03/13 10:24:15;;;;;;;18.85;3.90;;;;;;;;;;5114424;28;20240;-82
2023/03/13 10:26:42;;;;;;;17.65;3.47;;;;;;;;;;5114391;28;20228;-83
2023/03/13 10:29:20;;;;;;;17.70;3.88;;;;;;;;;;5114402;28;20316;-82
2023/03/13 10:31:51;;;;;;;15.55;3.72;;;;;;;;;;5114820;28;20665;-82
2023/03/13 10:34:18;;;;;;;15.02;3.80;;;;;;;;;;5114357;28;20229;-82
2023/03/13 10:36:46;;;;;;;16.75;3.58;;;;;;;;;;5113936;28;20232;-82
2023/03/13 10:39:17;;;;;;;17.67;3.58;;;;;;;;;;5114111;28;20693;-83
2023/03/13 10:41:45;;;;;;;16.10;3.88;;;;;;;;;;5114265;27;20697;-82
2023/03/13 10:44:16;;;;;;;14.85;3.53;;;;;;;;;;5114533;28;20288;-82
2023/03/13 10:46:44;;;;;;;15.88;3.80;;;;;;;;;;5113933;28;20253;-82
2023/03/13 10:49:15;;;;;;;13.77;3.45;;;;;;;;;;5113784;28;20310;-82
2023/03/13 10:51:47;;;;;;;17.02;4.10;;;;;;;;;;5114216;28;20282;-82
2023/03/13 10:54:22;;;;;;;12.90;3.10;;;;;;;;;;5114200;28;20651;-83
2023/03/13 10:56:49;;;;;;;17.30;3.85;;;;;;;;;;5113941;28;20292;-82
2023/03/13 10:59:22;;;;;;;17.50;3.75;;;;;;;;;;5113889;28;20213;-82
2023/03/13 11:01:51;;;;;;;11.85;3.20;;;;;;;;;;5113678;28;20297;-83
2023/03/13 11:04:22;;;;;;;10.15;2.70;;;;;;;;;;5113542;28;20217;-79
2023/03/13 11:06:52;;;;;;;10.93;3.58;;;;;;;;;;5106724;28;20222;-82
2023/03/13 11:09:21;;;;;;;12.23;3.22;;;;;;;;;;5113751;28;20279;-83
2023/03/13 11:11:49;;;;;;;14.68;2.90;;;;;;;;;;5113488;28;20705;-84
2023/03/13 11:14:18;;;;;;;15.15;3.30;;;;;;;;;;5113246;28;20289;-84
2023/03/13 11:16:50;;;;;;;12.35;3.00;;;;;;;;;;5112877;28;20248;-82
2023/03/13 11:19:23;;;;;;;15.02;3.13;;;;;;;;;;5113493;28;20197;-84
2023/03/13 11:21:54;;;;;;;12.57;3.10;;;;;;;;;;5113745;28;20233;-83
2023/03/13 11:24:27;;;;;;;11.98;3.28;;;;;;;;;;5113469;28;20289;-84
2023/03/13 11:26:58;;;;;;;13.55;3.42;;;;;;;;;;5113507;28;20289;-85
2023/03/13 11:29:29;;;;;;;12.63;3.40;;;;;;;;;;5112974;28;20669;-84
2023/03/13 11:31:58;;;;;;;11.10;3.17;;;;;;;;;;5109654;28;20285;-84
2023/03/13 11:34:29;;;;;;;16.23;3.63;;;;;;;;;;5112395;28;20189;-85
2023/03/13 11:37:01;;;;;;;13.70;3.28;;;;;;;;;;5109981;28;20284;-82
2023/03/13 11:39:39;;;;;;;11.98;3.25;;;;;;;;;;5111614;28;20197;-84
2023/03/13 11:42:14;;;;;;;13.77;3.28;;;;;;;;;;5111979;27;20333;-84
2023/03/13 11:44:49;;;;;;;14.65;3.42;;;;;;;;;;5110244;28;20446;-83
2023/03/13 11:47:24;;;;;;;12.73;3.40;;;;;;;;;;5110131;28;20637;-82
2023/03/13 11:50:06;;;;;;;14.13;3.05;;;;;;;;;;5111772;28;20670;-83
2023/03/13 11:52:41;;;;;;;18.77;3.70;;;;;;;;;;5107122;28;20262;-82
2023/03/13 11:55:35;;;;;;;14.15;3.22;;;;;;;;;;5108642;28;20200;-83
2023/03/13 11:58:10;;;;;;;14.23;3.20;;;;;;;;;;5065515;28;20669;-82
2023/03/13 12:00:40;;;;;;;14.88;3.47;;;;;;;;;;5063524;28;20286;-81
2023/03/13 12:03:11;;;;;;;12.68;3.45;;;;;;;;;;5068333;28;20286;-84
2023/03/13 12:05:41;;;;;;;14.57;3.17;;;;;;;;;;5068194;28;20290;-85
2023/03/13 12:08:11;;;;;;;12.13;3.00;;;;;;;;;;5066450;28;20286;-82
2023/03/13 12:10:41;;;;;;;14.30;3.45;;;;;;;;;;5066795;28;20778;-83
2023/03/13 12:13:13;;;;;;;14.43;3.35;;;;;;;;;;5067296;28;20624;-84
2023/03/13 12:15:42;;;;;;;14.48;3.10;;;;;;;;;;5068126;28;20237;-81
2023/03/13 12:18:13;;;;;;;11.90;2.83;;;;;;;;;;5067777;28;20361;-81
2023/03/13 12:20:43;;;;;;;12.05;3.10;;;;;;;;;;5067975;28;20715;-84
2023/03/13 12:23:20;;;;;;;7.63;2.60;;;;;;;;;;5067959;28;20269;-82
2023/03/13 12:25:49;;;;;;;10.63;2.40;;;;;;;;;;5068191;28;20306;-83
2023/03/13 12:28:23;;;;;;;14.20;3.03;;;;;;;;;;5067320;28;20282;-83
2023/03/13 12:30:53;;;;;;;14.52;3.15;;;;;;;;;;5068179;28;20240;-84
2023/03/13 12:33:23;;;;;;;12.50;2.65;;;;;;;;;;5081019;28;20284;-84
2023/03/13 12:35:54;;;;;;;12.02;2.95;;;;;;;;;;5112191;28;20238;-83
2023/03/13 12:38:25;;;;;;;10.85;2.85;;;;;;;;;;5111897;28;20280;-83
2023/03/13 12:40:58;;;;;;;13.35;2.47;;;;;;;;;;5112564;28;20221;-84
2023/03/13 12:43:29;;;;;;;15.57;2.83;;;;;;;;;;5111788;28;20285;-83
2023/03/13 12:46:07;;;;;;;12.15;2.90;;;;;;;;;;5111550;28;20265;-84
2023/03/13 12:48:43;;;;;;;14.52;3.30;;;;;;;;;;5111359;28;20305;-84
2023/03/13 12:51:17;;;;;;;10.10;3.20;;;;;;;;;;5112265;28;20197;-81
2023/03/13 12:53:54;;;;;;;12.13;2.92;;;;;;;;;;5112138;28;20201;-84
2023/03/13 12:56:38;;;;;;;12.25;2.67;;;;;;;;;;5112116;28;20276;-84
2023/03/13 12:59:08;;;;;;;12.90;3.45;;;;;;;;;;5111961;28;20280;-83
2023/03/13 13:01:38;;;;;;;14.13;2.60;;;;;;;;;;5111810;28;20213;-84
2023/03/13 13:04:07;;;;;;;12.80;2.90;;;;;;;;;;5111276;28;20233;-84
2023/03/13 13:06:54;;;;;;;10.52;2.63;;;;;;;;;;5111509;27;20284;-84
2023/03/13 13:09:23;;;;;;;10.90;3.03;;;;;;;;;;5111548;28;20246;-84
2023/03/13 13:11:51;;;;;;;13.38;2.88;;;;;;;;;;5111267;28;20296;-83
2023/03/13 13:14:33;;;;;;;11.15;2.75;;;;;;;;;;5111520;28;20197;-83
2023/03/13 13:17:04;;;;;;;9.82;2.38;;;;;;;;;;5111224;28;20194;-83
2023/03/13 13:19:47;;;;;;;11.95;2.53;;;;;;;;;;5111371;28;20213;-83
2023/03/13 13:22:35;;;;;;;15.20;3.58;;;;;;;;;;5111470;28;20281;-83
2023/03/13 13:25:03;;;;;;;14.07;3.00;;;;;;;;;;5111216;28;20189;-84
2023/03/13 13:27:45;;;;;;;12.07;3.20;;;;;;;;;;5110993;28;20194;-84
2023/03/13 13:30:27;;;;;;;10.35;2.30;;;;;;;;;;5111111;28;20720;-83
2023/03/13 13:32:56;;;;;;;10.82;3.00;;;;;;;;;;5111119;28;20217;-84
2023/03/13 13:35:28;;;;;;;9.00;2.78;;;;;;;;;;5095262;28;20806;-80
2023/03/13 13:38:10;;;;;;;11.95;2.42;;;;;;;;;;5091002;28;20248;-81
2023/03/13 13:40:37;;;;;;;11.98;3.13;;;;;;;;;;5094850;28;20285;-82
2023/03/13 13:43:07;;;;;;;12.35;2.38;;;;;;;;;;5095567;28;20222;-83
2023/03/13 13:45:36;;;;;;;7.65;2.40;;;;;;;;;;5094347;28;20590;-83
2023/03/13 13:48:24;;;;;;;10.73;2.50;;;;;;;;;;5094663;28;20289;-83
2023/03/13 13:51:10;;;;;;;8.32;2.20;;;;;;;;;;5094608;28;20258;-83
2023/03/13 13:53:43;;;;;;;10.20;2.22;;;;;;;;;;5094865;28;20832;-83
2023/03/13 13:56:25;;;;;;;11.80;2.50;;;;;;;;;;5095023;28;20226;-84
2023/03/13 13:58:56;;;;;;;11.20;2.22;;;;;;;;;;5094969;28;20226;-83
2023/03/13 14:01:23;;;;;;;14.68;2.78;;;;;;;;;;5101166;28;20594;-83
2023/03/13 14:03:54;;;;;;;11.18;2.70;;;;;;;;;;5114821;28;20224;-82
2023/03/13 14:06:22;;;;;;;9.63;2.47;;;;;;;;;;5115005;28;20289;-83
2023/03/13 14:08:52;;;;;;;12.65;2.80;;;;;;;;;;5114870;28;20670;-84
2023/03/13 14:11:24;;;;;;;12.68;2.70;;;;;;;;;;5115001;28;20270;-84
2023/03/13 14:14:10;;;;;;;13.35;2.50;;;;;;;;;;5100530;27;20281;-83
2023/03/13 14:16:38;;;;;;;11.50;2.67;;;;;;;;;;5114237;28;20189;-84
2023/03/13 14:19:06;;;;;;;11.88;2.80;;;;;;;;;;5114798;28;20190;-81
2023/03/13 14:21:34;;;;;;;18.10;2.85;;;;;;;;;;5114371;28;20251;-83
2023/03/13 14:24:01;;;;;;;13.25;2.95;;;;;;;;;;5114787;28;20292;-84
2023/03/13 14:26:29;;;;;;;13.88;3.28;;;;;;;;;;5114095;28;20271;-82
2023/03/13 14:28:57;;;;;;;16.13;3.17;;;;;;;;;;5113888;28;20251;-81
2023/03/13 14:31:26;;;;;;;12.80;2.83;;;;;;;;;;5114201;28;20301;-81
2023/03/13 14:33:53;;;;;;;14.73;3.13;;;;;;;;;;5114132;28;20253;-81
2023/03/13 14:36:22;;;;;;;10.38;2.78;;;;;;;;;;5114654;28;20236;-82
2023/03/13 14:38:53;;;;;;;16.95;2.92;;;;;;;;;;5107426;28;20229;-82
2023/03/13 14:41:25;;;;;;;16.15;3.13;;;;;;;;;;5099008;28;20228;-82
2023/03/13 14:43:52;;;;;;;13.98;2.78;;;;;;;;;;5093122;28;20222;-83
2023/03/13 14:46:24;;;;;;;16.90;3.42;;;;;;;;;;5093373;28;20333;-83